Time;durP1;ratioP1;P1;durP2;ratioP2;P2;SDS_P1;SDS_P2;PMS_P1;PMS_P2;Temp;Humidity;BMP_temperature;BMP_pressure;BME280_temperature;BME280_humidity;BME280_pressure;Samples;Min_cycle;Max_cycle;Signal;HPM_P1;HPM_P2
2022/09/17 00:01:38;;;;;;;1.40;0.67;;;9.50;99.90;;;;;;5058083;28;20181;-77
2022/09/17 00:04:05;;;;;;;3.63;0.50;;;9.40;99.90;;;;;;5061106;28;20227;-76
2022/09/17 00:06:33;;;;;;;2.00;0.87;;;9.40;99.90;;;;;;5051321;28;20201;-76
2022/09/17 00:08:59;;;;;;;1.57;0.80;;;9.40;99.90;;;;;;5051299;28;20444;-77
2022/09/17 00:11:27;;;;;;;1.53;0.70;;;9.50;99.90;;;;;;5028131;28;20475;-76
2022/09/17 00:13:54;;;;;;;1.30;0.60;;;9.50;99.90;;;;;;5051467;28;20189;-77
2022/09/17 00:16:28;;;;;;;1.30;0.70;;;9.50;99.90;;;;;;5051446;28;20427;-77
2022/09/17 00:18:53;;;;;;;1.30;0.60;;;9.50;99.90;;;;;;5051652;28;20436;-76
2022/09/17 00:21:19;;;;;;;1.30;0.50;;;9.50;99.90;;;;;;5050996;28;20432;-76
2022/09/17 00:23:45;;;;;;;3.30;0.80;;;9.50;99.90;;;;;;5032834;28;20650;-77
2022/09/17 00:26:11;;;;;;;2.50;1.20;;;9.50;99.90;;;;;;5033232;28;20432;-77
2022/09/17 00:28:37;;;;;;;3.00;1.00;;;9.50;99.90;;;;;;5051075;28;20475;-77
2022/09/17 00:31:07;;;;;;;1.83;0.50;;;9.40;99.90;;;;;;5050020;28;20173;-75
2022/09/17 00:33:33;;;;;;;3.63;1.20;;;9.50;99.90;;;;;;5049750;28;20189;-77
2022/09/17 00:36:00;;;;;;;1.30;0.50;;;9.50;99.90;;;;;;5050905;28;20484;-76
2022/09/17 00:38:26;;;;;;;1.70;0.73;;;9.50;99.90;;;;;;5032577;28;20213;-77
2022/09/17 00:40:52;;;;;;;3.10;0.63;;;9.50;99.90;;;;;;5050647;28;20925;-77
2022/09/17 00:43:41;;;;;;;1.50;0.70;;;9.50;99.90;;;;;;5050970;28;20543;-77
2022/09/17 00:46:24;;;;;;;1.43;0.60;;;9.60;99.90;;;;;;5050669;28;20209;-77
2022/09/17 00:48:52;;;;;;;2.07;0.70;;;9.60;99.90;;;;;;5050723;28;20494;-77
2022/09/17 00:51:24;;;;;;;2.43;0.70;;;9.60;99.90;;;;;;5050525;28;20547;-77
2022/09/17 00:53:50;;;;;;;1.20;0.50;;;9.60;99.90;;;;;;5050147;28;20451;-77
2022/09/17 00:56:27;;;;;;;3.07;1.03;;;9.60;99.90;;;;;;5043793;28;20899;-77
2022/09/17 00:58:54;;;;;;;2.13;0.87;;;9.60;99.90;;;;;;5053242;28;20208;-77
2022/09/17 01:01:20;;;;;;;1.40;0.73;;;9.60;99.90;;;;;;5057758;28;20450;-77
2022/09/17 01:03:46;;;;;;;1.40;0.60;;;9.60;99.90;;;;;;5060102;28;20463;-77
2022/09/17 01:06:32;;;;;;;1.40;0.60;;;9.70;99.90;;;;;;5050667;28;20803;-77
2022/09/17 01:09:00;;;;;;;1.73;0.60;;;9.60;99.90;;;;;;5050569;28;20911;-76
2022/09/17 01:11:38;;;;;;;1.60;0.70;;;9.60;99.90;;;;;;5046732;28;20421;-76
2022/09/17 01:14:10;;;;;;;3.47;1.00;;;9.60;99.90;;;;;;5032747;28;20926;-76
2022/09/17 01:17:01;;;;;;;1.50;0.70;;;9.60;99.90;;;;;;5050210;28;20424;-77
2022/09/17 01:19:41;;;;;;;1.30;0.60;;;9.70;99.90;;;;;;5049784;28;20420;-73
2022/09/17 01:22:07;;;;;;;2.80;0.90;;;9.70;99.90;;;;;;5050107;28;20520;-73
2022/09/17 01:24:43;;;;;;;1.60;0.57;;;9.70;99.90;;;;;;5049748;28;20425;-74
2022/09/17 01:27:17;;;;;;;2.03;0.80;;;9.60;99.90;;;;;;5050569;28;20205;-75
2022/09/17 01:30:03;;;;;;;3.20;0.80;;;9.60;99.90;;;;;;5031671;28;20462;-74
2022/09/17 01:32:37;;;;;;;2.00;0.80;;;9.70;99.90;;;;;;5018771;28;20504;-75
2022/09/17 01:35:12;;;;;;;1.97;0.93;;;9.60;99.90;;;;;;5049528;28;20424;-75
2022/09/17 01:37:42;;;;;;;2.23;0.73;;;9.60;99.90;;;;;;5046040;28;20498;-74
2022/09/17 01:40:25;;;;;;;1.40;0.60;;;9.60;99.90;;;;;;5026870;28;20420;-75
2022/09/17 01:42:53;;;;;;;3.57;1.53;;;9.60;99.90;;;;;;5053953;28;20467;-76
2022/09/17 01:45:47;;;;;;;1.47;0.67;;;9.60;99.90;;;;;;5033662;28;20420;-74
2022/09/17 01:48:19;;;;;;;1.43;0.70;;;9.60;99.90;;;;;;5039196;28;20448;-75
2022/09/17 01:50:51;;;;;;;1.77;0.97;;;9.60;99.90;;;;;;5036045;28;20424;-73
2022/09/17 01:53:20;;;;;;;5.23;0.90;;;9.60;99.90;;;;;;5053441;28;20439;-75
2022/09/17 01:55:48;;;;;;;2.80;0.77;;;9.50;99.90;;;;;;5044721;28;20420;-73
2022/09/17 01:58:22;;;;;;;3.00;1.00;;;9.50;99.90;;;;;;5054466;28;20877;-75
2022/09/17 02:00:58;;;;;;;1.50;0.53;;;9.50;99.90;;;;;;5046531;28;20420;-75
2022/09/17 02:03:37;;;;;;;1.87;0.70;;;9.40;99.90;;;;;;5048462;28;20463;-75
2022/09/17 02:06:16;;;;;;;5.80;1.00;;;9.50;99.90;;;;;;5049917;28;20435;-75
2022/09/17 02:08:51;;;;;;;1.70;0.90;;;9.50;99.90;;;;;;5047798;28;20476;-74
2022/09/17 02:11:18;;;;;;;1.30;0.60;;;9.60;99.90;;;;;;5052558;28;20455;-74
2022/09/17 02:13:57;;;;;;;1.37;0.70;;;9.50;99.90;;;;;;5053506;28;20427;-76
2022/09/17 02:16:25;;;;;;;4.20;1.10;;;9.60;99.90;;;;;;5053542;28;20429;-76
2022/09/17 02:19:04;;;;;;;2.57;0.60;;;9.60;99.90;;;;;;5030224;28;20522;-76
2022/09/17 02:21:42;;;;;;;4.60;1.10;;;9.70;99.90;;;;;;5053564;28;20424;-75
2022/09/17 02:24:24;;;;;;;2.80;0.70;;;9.60;99.90;;;;;;5053217;28;20420;-74
2022/09/17 02:27:00;;;;;;;1.50;0.60;;;9.60;99.90;;;;;;5047890;28;21109;-76
2022/09/17 02:29:53;;;;;;;1.30;0.70;;;9.60;99.90;;;;;;5053880;28;20412;-77
2022/09/17 02:32:18;;;;;;;1.90;0.70;;;9.60;99.90;;;;;;5047959;28;20424;-75
2022/09/17 02:34:44;;;;;;;1.40;0.70;;;9.50;99.90;;;;;;5053836;28;20419;-75
2022/09/17 02:37:10;;;;;;;1.40;0.63;;;9.50;99.90;;;;;;5053747;28;20208;-76
2022/09/17 02:39:36;;;;;;;1.60;0.70;;;9.50;99.90;;;;;;5053180;28;20416;-75
2022/09/17 02:42:16;;;;;;;2.20;0.77;;;9.50;99.90;;;;;;5053208;28;20572;-76
2022/09/17 02:45:17;;;;;;;2.50;0.80;;;9.50;99.90;;;;;;5047645;28;20224;-75
2022/09/17 02:48:01;;;;;;;2.63;0.53;;;9.50;99.90;;;;;;5078842;28;20448;-79
2022/09/17 02:50:40;;;;;;;2.33;0.93;;;9.60;99.90;;;;;;5080277;28;20400;-79
2022/09/17 02:53:29;;;;;;;9.03;1.00;;;9.50;99.90;;;;;;5075671;28;20428;-77
2022/09/17 02:56:19;;;;;;;2.27;1.27;;;9.50;99.90;;;;;;5067432;28;20408;-77
2022/09/17 02:59:24;;;;;;;1.30;0.60;;;9.50;99.90;;;;;;5060903;28;20433;-78
2022/09/17 03:02:02;;;;;;;17.30;1.13;;;9.50;99.90;;;;;;5040434;28;20440;-76
2022/09/17 03:04:29;;;;;;;1.70;0.80;;;9.50;99.90;;;;;;5035989;28;20440;-76
2022/09/17 03:06:55;;;;;;;1.40;0.60;;;9.50;99.90;;;;;;5042070;28;20440;-77
2022/09/17 03:09:21;;;;;;;1.30;0.70;;;9.40;99.90;;;;;;5060830;28;20424;-76
2022/09/17 03:11:47;;;;;;;1.30;0.60;;;9.40;99.90;;;;;;5051318;28;20439;-77
2022/09/17 03:14:12;;;;;;;4.13;1.40;;;9.30;99.90;;;;;;5053352;28;20657;-75
2022/09/17 03:16:38;;;;;;;2.13;0.80;;;9.30;99.90;;;;;;5053284;28;20192;-76
2022/09/17 03:19:03;;;;;;;1.50;0.80;;;9.40;99.90;;;;;;5035339;28;20311;-76
2022/09/17 03:21:29;;;;;;;2.60;0.80;;;9.20;99.90;;;;;;5052676;28;20182;-76
2022/09/17 03:23:55;;;;;;;1.50;0.70;;;9.20;99.90;;;;;;5052358;28;20201;-76
2022/09/17 03:26:21;;;;;;;3.03;1.03;;;9.20;99.90;;;;;;5052372;28;20510;-78
2022/09/17 03:28:47;;;;;;;3.43;1.03;;;9.10;99.90;;;;;;5053052;28;20535;-77
2022/09/17 03:31:13;;;;;;;1.50;0.70;;;9.00;99.90;;;;;;5021611;28;20478;-77
2022/09/17 03:33:38;;;;;;;2.23;1.03;;;9.00;99.90;;;;;;5052276;28;20190;-76
2022/09/17 03:36:04;;;;;;;3.70;1.00;;;8.90;99.90;;;;;;5052772;28;20220;-77
2022/09/17 03:38:29;;;;;;;1.97;0.77;;;8.90;99.90;;;;;;5052252;28;20628;-77
2022/09/17 03:41:04;;;;;;;5.90;1.20;;;9.00;99.90;;;;;;5036040;28;20192;-76
2022/09/17 03:43:29;;;;;;;8.73;1.33;;;9.00;99.90;;;;;;5054512;28;20243;-77
2022/09/17 03:45:55;;;;;;;1.97;0.93;;;9.10;99.90;;;;;;5041119;28;20420;-77
2022/09/17 03:48:21;;;;;;;1.83;0.80;;;9.10;99.90;;;;;;5036620;28;20217;-77
2022/09/17 03:50:47;;;;;;;9.90;1.03;;;9.10;99.90;;;;;;5035888;28;20189;-76
2022/09/17 03:53:13;;;;;;;4.80;1.27;;;9.20;99.90;;;;;;5046077;28;21266;-76
2022/09/17 03:55:39;;;;;;;4.30;1.27;;;9.30;99.90;;;;;;5034143;28;20755;-76
2022/09/17 03:58:05;;;;;;;5.97;1.10;;;9.10;99.90;;;;;;5056429;28;20202;-76
2022/09/17 04:00:31;;;;;;;4.63;1.13;;;9.10;99.90;;;;;;5059285;28;20420;-76
2022/09/17 04:02:57;;;;;;;2.27;0.80;;;9.10;99.90;;;;;;5052009;28;20467;-76
2022/09/17 04:05:22;;;;;;;2.47;0.93;;;9.10;99.90;;;;;;5051823;28;20875;-77
2022/09/17 04:07:48;;;;;;;3.33;1.20;;;9.10;99.90;;;;;;5052026;28;20210;-76
2022/09/17 04:10:14;;;;;;;1.70;0.80;;;9.10;99.90;;;;;;5051951;28;20644;-76
2022/09/17 04:12:39;;;;;;;2.13;0.90;;;9.10;99.90;;;;;;5047458;28;20272;-77
2022/09/17 04:15:06;;;;;;;8.33;1.07;;;9.10;99.90;;;;;;5052006;28;20178;-78
2022/09/17 04:17:31;;;;;;;1.50;0.80;;;9.10;99.90;;;;;;5052322;28;20216;-76
2022/09/17 04:19:57;;;;;;;2.10;0.80;;;9.10;99.90;;;;;;5051574;28;20416;-76
2022/09/17 04:22:24;;;;;;;2.90;0.90;;;9.10;99.90;;;;;;5051368;28;20213;-76
2022/09/17 04:24:49;;;;;;;2.60;0.97;;;9.20;99.90;;;;;;5028313;28;20269;-77
2022/09/17 04:27:15;;;;;;;1.50;0.83;;;9.10;99.90;;;;;;5044225;28;20903;-76
2022/09/17 04:29:41;;;;;;;1.83;0.90;;;9.00;99.90;;;;;;5028721;28;20182;-76
2022/09/17 04:32:07;;;;;;;3.13;1.00;;;9.00;99.90;;;;;;5043594;28;20780;-76
2022/09/17 04:34:33;;;;;;;2.07;1.10;;;9.00;99.90;;;;;;5050800;28;20182;-76
2022/09/17 04:36:59;;;;;;;1.50;0.80;;;8.90;99.90;;;;;;5033626;28;20490;-77
2022/09/17 04:39:25;;;;;;;2.47;0.80;;;8.80;99.90;;;;;;5050486;28;20428;-76
2022/09/17 04:41:50;;;;;;;1.90;0.90;;;8.70;99.90;;;;;;5050993;28;20602;-75
2022/09/17 04:44:16;;;;;;;1.70;0.80;;;8.70;99.90;;;;;;5051127;28;20174;-78
2022/09/17 04:46:42;;;;;;;2.63;1.10;;;8.70;99.90;;;;;;5051201;28;20263;-76
2022/09/17 04:49:07;;;;;;;1.93;0.90;;;8.60;99.90;;;;;;5051149;28;20966;-76
2022/09/17 04:51:33;;;;;;;11.60;1.27;;;8.60;99.90;;;;;;5051609;28;20170;-76
2022/09/17 04:53:59;;;;;;;2.37;0.97;;;8.60;99.90;;;;;;5046375;28;20216;-77
2022/09/17 04:56:24;;;;;;;6.13;1.13;;;8.70;99.90;;;;;;5046884;28;20200;-77
2022/09/17 04:58:50;;;;;;;1.50;0.77;;;8.50;99.90;;;;;;5057017;28;20216;-76
2022/09/17 05:01:17;;;;;;;1.90;0.97;;;8.50;99.90;;;;;;5057190;28;20612;-77
2022/09/17 05:03:43;;;;;;;2.50;1.23;;;8.50;99.90;;;;;;5049879;28;21038;-77
2022/09/17 05:06:09;;;;;;;1.60;0.67;;;8.40;99.90;;;;;;5042916;28;20413;-77
2022/09/17 05:08:35;;;;;;;12.10;1.20;;;8.40;99.90;;;;;;5032748;28;20451;-76
2022/09/17 05:11:01;;;;;;;2.90;1.57;;;8.30;99.90;;;;;;5050604;28;20186;-75
2022/09/17 05:13:27;;;;;;;2.30;0.80;;;8.30;99.90;;;;;;5047918;28;20182;-77
2022/09/17 05:15:56;;;;;;;1.33;0.70;;;8.40;99.90;;;;;;5051054;28;20450;-76
2022/09/17 05:18:22;;;;;;;12.83;1.20;;;8.40;99.90;;;;;;5051000;28;20272;-76
2022/09/17 05:20:48;;;;;;;5.53;1.00;;;8.40;99.90;;;;;;5050836;28;20515;-76
2022/09/17 05:23:13;;;;;;;3.10;1.40;;;8.40;99.90;;;;;;5050756;28;20546;-74
2022/09/17 05:25:39;;;;;;;4.17;1.07;;;8.30;99.90;;;;;;5050552;28;20184;-76
2022/09/17 05:28:04;;;;;;;3.53;1.17;;;8.40;99.90;;;;;;5051012;28;20208;-76
2022/09/17 05:30:30;;;;;;;2.03;0.80;;;8.30;99.90;;;;;;5050693;28;20572;-76
2022/09/17 05:33:01;;;;;;;5.63;1.17;;;8.40;99.90;;;;;;5048825;28;20273;-76
2022/09/17 05:35:28;;;;;;;4.27;0.80;;;8.50;99.90;;;;;;5032739;28;20428;-76
2022/09/17 05:38:01;;;;;;;3.30;0.87;;;8.50;99.90;;;;;;5050822;28;20931;-73
2022/09/17 05:40:27;;;;;;;3.87;1.07;;;8.40;99.90;;;;;;5049936;28;20470;-76
2022/09/17 05:43:00;;;;;;;3.67;1.10;;;8.70;99.90;;;;;;5050598;28;20455;-76
2022/09/17 05:45:26;;;;;;;1.97;1.23;;;8.60;99.90;;;;;;5050834;28;20416;-75
2022/09/17 05:47:59;;;;;;;3.00;0.80;;;8.60;99.90;;;;;;5051016;28;20437;-76
2022/09/17 05:50:26;;;;;;;3.13;1.53;;;8.70;99.90;;;;;;5050559;28;20213;-75
2022/09/17 05:52:52;;;;;;;1.97;1.03;;;8.80;99.90;;;;;;5049985;28;20531;-76
2022/09/17 05:55:21;;;;;;;2.97;1.10;;;9.00;99.90;;;;;;5049579;28;20428;-76
2022/09/17 05:57:50;;;;;;;3.13;1.10;;;9.00;99.90;;;;;;5049590;28;20448;-76
2022/09/17 06:00:16;;;;;;;12.97;1.83;;;9.10;99.90;;;;;;5057682;28;20416;-74
2022/09/17 06:02:42;;;;;;;5.53;1.40;;;9.10;99.90;;;;;;5050312;28;20495;-77
2022/09/17 06:05:08;;;;;;;3.30;1.20;;;9.10;99.90;;;;;;5050209;28;20458;-76
2022/09/17 06:07:35;;;;;;;4.90;1.20;;;9.10;99.90;;;;;;5051093;28;20440;-77
2022/09/17 06:10:01;;;;;;;5.77;1.13;;;9.00;99.90;;;;;;5031783;28;20481;-77
2022/09/17 06:12:27;;;;;;;5.97;1.37;;;9.00;99.90;;;;;;5032079;28;20427;-77
2022/09/17 06:14:52;;;;;;;4.53;1.10;;;9.10;99.90;;;;;;5032365;28;20842;-77
2022/09/17 06:17:18;;;;;;;3.50;1.43;;;9.00;99.90;;;;;;5032989;28;20213;-74
2022/09/17 06:19:43;;;;;;;11.40;1.60;;;9.00;99.90;;;;;;5050655;28;20190;-75
2022/09/17 06:22:09;;;;;;;4.60;1.57;;;9.00;99.90;;;;;;5050243;28;20673;-75
2022/09/17 06:24:34;;;;;;;6.40;1.17;;;9.20;99.90;;;;;;5049581;28;20196;-76
2022/09/17 06:27:00;;;;;;;4.37;1.07;;;9.30;99.90;;;;;;5050213;28;20256;-75
2022/09/17 06:29:26;;;;;;;7.83;1.10;;;9.40;99.90;;;;;;5053015;28;20205;-75
2022/09/17 06:31:52;;;;;;;1.90;0.73;;;9.50;99.90;;;;;;5053520;28;20185;-75
2022/09/17 06:34:18;;;;;;;3.87;0.87;;;9.70;99.90;;;;;;5053039;28;20424;-75
2022/09/17 06:36:44;;;;;;;5.90;1.70;;;9.70;99.90;;;;;;5026323;28;20874;-75
2022/09/17 06:39:10;;;;;;;5.83;1.40;;;9.70;99.90;;;;;;5032095;28;20196;-75
2022/09/17 06:41:37;;;;;;;1.77;0.70;;;9.80;99.90;;;;;;5053058;28;20247;-75
2022/09/17 06:44:03;;;;;;;3.00;1.23;;;9.70;99.90;;;;;;5053673;28;20845;-75
2022/09/17 06:46:29;;;;;;;3.77;1.13;;;9.70;99.90;;;;;;5053550;28;20459;-75
2022/09/17 06:48:55;;;;;;;2.53;1.37;;;9.50;99.90;;;;;;5035427;28;20472;-75
2022/09/17 06:51:21;;;;;;;1.50;0.80;;;9.40;99.90;;;;;;5047424;28;20174;-75
2022/09/17 06:53:47;;;;;;;8.27;2.13;;;9.40;99.90;;;;;;5049714;28;20259;-74
2022/09/17 06:56:14;;;;;;;2.93;0.90;;;9.20;99.90;;;;;;5055041;28;20842;-75
2022/09/17 06:58:40;;;;;;;3.50;1.40;;;9.40;99.90;;;;;;5059866;28;20452;-75
2022/09/17 07:01:06;;;;;;;12.13;1.43;;;9.40;99.90;;;;;;5058622;28;20485;-75
2022/09/17 07:03:33;;;;;;;3.77;1.10;;;9.40;99.90;;;;;;5052830;28;20618;-75
2022/09/17 07:05:59;;;;;;;1.53;0.90;;;9.40;99.90;;;;;;5035313;28;20827;-73
2022/09/17 07:08:25;;;;;;;2.37;1.43;;;9.50;99.90;;;;;;5053827;28;20444;-75
2022/09/17 07:10:54;;;;;;;1.83;0.80;;;9.50;99.90;;;;;;5052670;28;20798;-75
2022/09/17 07:13:19;;;;;;;4.90;1.33;;;9.60;99.90;;;;;;5050861;28;20430;-73
2022/09/17 07:15:55;;;;;;;3.90;1.57;;;9.60;99.90;;;;;;5043773;28;20503;-75
2022/09/17 07:18:22;;;;;;;2.17;0.93;;;9.50;99.90;;;;;;5052704;28;20941;-73
2022/09/17 07:20:59;;;;;;;5.97;1.33;;;9.40;99.90;;;;;;5053095;28;20478;-75
2022/09/17 07:23:30;;;;;;;3.83;0.97;;;9.40;99.90;;;;;;5041013;28;20460;-75
2022/09/17 07:25:58;;;;;;;4.47;1.77;;;9.50;99.90;;;;;;5034654;28;20432;-75
2022/09/17 07:28:25;;;;;;;3.73;1.27;;;9.40;99.90;;;;;;5052515;28;20460;-76
2022/09/17 07:30:51;;;;;;;3.13;0.90;;;9.50;99.90;;;;;;5035836;28;20424;-75
2022/09/17 07:33:22;;;;;;;5.53;1.37;;;9.50;99.90;;;;;;5052465;28;20416;-75
2022/09/17 07:35:58;;;;;;;4.70;1.27;;;9.50;99.90;;;;;;5052958;28;20419;-75
2022/09/17 07:38:26;;;;;;;2.67;1.40;;;9.50;99.90;;;;;;5026832;28;20441;-76
2022/09/17 07:40:57;;;;;;;1.90;1.00;;;9.50;99.90;;;;;;5030739;28;20436;-75
2022/09/17 07:43:27;;;;;;;5.53;1.67;;;9.60;99.90;;;;;;5051710;28;20521;-75
2022/09/17 07:45:55;;;;;;;2.50;1.17;;;9.60;99.90;;;;;;5018621;28;20462;-75
2022/09/17 07:48:20;;;;;;;14.83;1.57;;;9.60;99.90;;;;;;5043604;28;20505;-77
2022/09/17 07:50:46;;;;;;;5.33;1.70;;;9.60;99.90;;;;;;5053214;28;20412;-77
2022/09/17 07:53:12;;;;;;;3.30;1.80;;;9.60;99.90;;;;;;5042844;28;20193;-75
2022/09/17 07:55:38;;;;;;;5.60;2.07;;;9.50;99.90;;;;;;5052294;28;20427;-75
2022/09/17 07:58:03;;;;;;;2.87;1.30;;;9.50;99.90;;;;;;5060575;28;20448;-75
2022/09/17 08:00:29;;;;;;;7.33;2.30;;;9.40;99.90;;;;;;5058130;28;20189;-76
2022/09/17 08:02:55;;;;;;;3.60;1.80;;;9.30;99.90;;;;;;5052417;28;20569;-76
2022/09/17 08:05:23;;;;;;;3.23;2.23;;;9.20;99.90;;;;;;5035812;28;20193;-75
2022/09/17 08:07:53;;;;;;;2.57;1.20;;;9.10;99.90;;;;;;5052676;28;20472;-76
2022/09/17 08:10:21;;;;;;;4.87;1.80;;;9.00;99.90;;;;;;5034762;28;20431;-76
2022/09/17 08:12:48;;;;;;;6.00;1.40;;;9.00;99.90;;;;;;5052810;28;20930;-76
2022/09/17 08:15:15;;;;;;;6.00;1.97;;;9.20;99.90;;;;;;5050950;28;20428;-76
2022/09/17 08:17:45;;;;;;;3.60;1.53;;;9.30;99.90;;;;;;5052573;28;20552;-76
2022/09/17 08:20:15;;;;;;;1.93;1.30;;;9.30;99.90;;;;;;5038833;28;20424;-76
2022/09/17 08:22:41;;;;;;;2.17;1.10;;;9.30;99.90;;;;;;5051134;28;20460;-76
2022/09/17 08:25:07;;;;;;;5.97;2.37;;;9.30;99.90;;;;;;5034325;28;20471;-76
2022/09/17 08:27:33;;;;;;;5.70;1.97;;;9.40;99.90;;;;;;5035836;28;20456;-76
2022/09/17 08:29:59;;;;;;;4.37;3.63;;;9.50;99.90;;;;;;5051309;28;20482;-76
2022/09/17 08:32:25;;;;;;;2.03;1.27;;;9.60;99.90;;;;;;5050362;28;20424;-76
2022/09/17 08:34:52;;;;;;;3.80;1.73;;;9.70;99.90;;;;;;5015368;28;20190;-76
2022/09/17 08:37:19;;;;;;;2.77;1.20;;;9.60;99.90;;;;;;5046408;28;20292;-76
2022/09/17 08:39:44;;;;;;;3.30;2.27;;;9.70;99.90;;;;;;5034498;28;20424;-75
2022/09/17 08:42:34;;;;;;;1.60;0.80;;;9.90;99.90;;;;;;5052227;28;20467;-76
2022/09/17 08:45:04;;;;;;;3.77;1.47;;;10.10;99.90;;;;;;5052456;28;20272;-76
2022/09/17 08:47:42;;;;;;;2.33;1.50;;;10.30;99.90;;;;;;5051372;28;20436;-76
2022/09/17 08:50:33;;;;;;;1.80;1.00;;;10.30;99.90;;;;;;5049799;28;20432;-75
2022/09/17 08:53:15;;;;;;;2.33;1.13;;;10.30;99.90;;;;;;5040110;28;20462;-75
2022/09/17 08:55:59;;;;;;;5.93;1.70;;;10.20;99.90;;;;;;5051234;28;20530;-76
2022/09/17 08:58:36;;;;;;;11.40;3.10;;;10.20;99.90;;;;;;5054719;28;20455;-74
2022/09/17 09:01:21;;;;;;;3.07;1.67;;;10.40;99.90;;;;;;5056371;28;20428;-74
2022/09/17 09:04:35;;;;;;;9.07;2.07;;;10.60;99.90;;;;;;5049464;28;20464;-76
2022/09/17 09:07:05;;;;;;;2.60;0.93;;;10.90;99.90;;;;;;5042666;28;20509;-75
2022/09/17 09:09:38;;;;;;;1.87;1.30;;;11.00;99.90;;;;;;5036395;28;20802;-76
2022/09/17 09:12:12;;;;;;;14.30;2.20;;;10.90;99.90;;;;;;5054886;28;20834;-74
2022/09/17 09:14:49;;;;;;;20.43;1.73;;;11.10;99.90;;;;;;5055386;28;20428;-76
2022/09/17 09:17:17;;;;;;;4.03;1.77;;;11.10;99.90;;;;;;5049229;28;20479;-77
2022/09/17 09:19:45;;;;;;;3.77;1.63;;;11.10;99.90;;;;;;5051743;28;20428;-76
2022/09/17 09:22:24;;;;;;;8.13;1.90;;;10.90;99.90;;;;;;5031378;28;20516;-77
2022/09/17 09:25:17;;;;;;;3.13;1.43;;;10.80;99.90;;;;;;5042038;28;20522;-75
2022/09/17 09:28:01;;;;;;;4.70;1.67;;;10.80;99.90;;;;;;5035531;28;20456;-76
2022/09/17 09:30:43;;;;;;;4.57;1.63;;;11.00;99.90;;;;;;5045273;28;20425;-75
2022/09/17 09:33:16;;;;;;;4.07;1.83;;;11.00;99.90;;;;;;5052433;28;20520;-76
2022/09/17 09:35:43;;;;;;;4.30;1.43;;;11.00;99.90;;;;;;5038415;28;20943;-76
2022/09/17 09:38:35;;;;;;;2.57;0.93;;;11.00;99.90;;;;;;5046380;28;20822;-76
2022/09/17 09:41:10;;;;;;;2.43;1.03;;;11.10;99.90;;;;;;5049621;28;20428;-74
2022/09/17 09:43:38;;;;;;;7.80;2.33;;;11.10;99.90;;;;;;5045340;28;20470;-77
2022/09/17 09:46:13;;;;;;;6.60;2.00;;;11.20;99.90;;;;;;5050567;28;20978;-76
2022/09/17 09:49:00;;;;;;;3.57;1.23;;;11.30;99.90;;;;;;5038592;28;20612;-76
2022/09/17 09:52:02;;;;;;;2.17;0.97;;;11.40;99.90;;;;;;5039555;28;20439;-76
2022/09/17 09:54:47;;;;;;;3.70;1.70;;;11.40;99.90;;;;;;5039647;28;20509;-76
2022/09/17 09:57:16;;;;;;;5.83;1.90;;;11.30;99.90;;;;;;5029599;28;20484;-76
2022/09/17 09:59:42;;;;;;;4.07;1.30;;;11.50;99.90;;;;;;5039826;28;20419;-77
2022/09/17 10:02:09;;;;;;;2.70;1.40;;;11.60;99.90;;;;;;5052927;28;20923;-74
2022/09/17 10:04:34;;;;;;;3.73;1.10;;;11.60;99.90;;;;;;5053442;28;20250;-77
2022/09/17 10:07:04;;;;;;;1.50;0.90;;;11.40;99.90;;;;;;5054457;28;21010;-76
2022/09/17 10:09:31;;;;;;;7.03;1.03;;;11.40;99.90;;;;;;5054410;28;20265;-75
2022/09/17 10:12:03;;;;;;;2.67;1.10;;;11.30;99.90;;;;;;5035477;28;20449;-75
2022/09/17 10:14:32;;;;;;;5.97;1.73;;;11.40;99.90;;;;;;5053856;28;20420;-74
2022/09/17 10:17:12;;;;;;;3.00;0.97;;;11.40;99.90;;;;;;5053828;28;20535;-76
2022/09/17 10:19:38;;;;;;;2.47;0.87;;;11.50;99.90;;;;;;5053847;28;20432;-76
2022/09/17 10:22:31;;;;;;;6.17;1.43;;;11.70;99.90;;;;;;5053568;28;20916;-76
2022/09/17 10:24:59;;;;;;;21.17;1.90;;;11.90;99.90;;;;;;5053589;28;20420;-76
2022/09/17 10:27:26;;;;;;;6.13;1.30;;;12.10;99.90;;;;;;5023163;28;20452;-76
2022/09/17 10:30:07;;;;;;;1.83;1.07;;;12.20;99.90;;;;;;5052893;28;20423;-76
2022/09/17 10:32:33;;;;;;;7.33;1.23;;;12.10;99.90;;;;;;5049166;28;20434;-76
2022/09/17 10:35:22;;;;;;;7.87;1.17;;;11.90;99.90;;;;;;5056777;28;20420;-76
2022/09/17 10:37:50;;;;;;;5.97;1.33;;;11.70;99.90;;;;;;5053078;28;20205;-75
2022/09/17 10:40:18;;;;;;;3.10;1.47;;;11.60;99.90;;;;;;5053568;28;20447;-77
2022/09/17 10:43:22;;;;;;;3.00;0.87;;;11.70;99.90;;;;;;5025943;28;20464;-76
2022/09/17 10:45:57;;;;;;;2.33;0.83;;;12.00;99.90;;;;;;5049246;28;20440;-76
2022/09/17 10:48:25;;;;;;;3.10;1.10;;;12.30;99.90;;;;;;5021213;28;20444;-76
2022/09/17 10:50:55;;;;;;;4.90;1.27;;;12.60;99.90;;;;;;5050870;28;20447;-76
2022/09/17 10:53:23;;;;;;;5.27;2.23;;;12.70;99.90;;;;;;5053016;28;20492;-76
2022/09/17 10:56:15;;;;;;;2.10;1.00;;;12.60;99.40;;;;;;5052984;28;20431;-76
2022/09/17 10:58:54;;;;;;;10.20;5.90;;;12.90;99.90;;;;;;5049519;28;20997;-76
2022/09/17 11:01:50;;;;;;;6.13;2.53;;;13.30;98.70;;;;;;5052590;28;20436;-76
2022/09/17 11:04:33;;;;;;;3.03;1.40;;;13.40;98.10;;;;;;5027378;28;20521;-76
2022/09/17 11:07:14;;;;;;;1.67;0.90;;;13.50;99.10;;;;;;5052893;28;20946;-76
2022/09/17 11:10:01;;;;;;;11.50;1.20;;;13.60;98.80;;;;;;5046582;28;20416;-76
2022/09/17 11:12:41;;;;;;;1.80;0.90;;;13.60;97.30;;;;;;5053726;28;20435;-76
2022/09/17 11:15:44;;;;;;;6.50;1.30;;;13.40;97.40;;;;;;5053113;28;20927;-77
2022/09/17 11:18:43;;;;;;;7.53;2.00;;;13.10;97.90;;;;;;5031627;28;20455;-75
2022/09/17 11:21:31;;;;;;;4.90;1.00;;;12.80;97.90;;;;;;5027861;28;20966;-76
2022/09/17 11:24:11;;;;;;;1.70;0.83;;;12.70;98.10;;;;;;5050722;28;20546;-76
2022/09/17 11:27:13;;;;;;;3.40;1.03;;;12.80;99.20;;;;;;5047987;28;20826;-76
2022/09/17 11:30:01;;;;;;;2.80;0.80;;;12.90;98.90;;;;;;4972862;28;20520;-76
2022/09/17 11:32:32;;;;;;;2.27;0.80;;;12.70;98.50;;;;;;5048817;28;20930;-76
2022/09/17 11:35:06;;;;;;;7.23;1.17;;;12.70;99.20;;;;;;5060208;28;20498;-75
2022/09/17 11:37:38;;;;;;;1.80;0.87;;;12.80;98.20;;;;;;5050969;28;20955;-76
2022/09/17 11:40:16;;;;;;;5.37;1.80;;;12.90;98.20;;;;;;5054376;28;20511;-76
2022/09/17 11:42:48;;;;;;;5.37;1.23;;;13.00;97.40;;;;;;5051865;28;20525;-76
2022/09/17 11:45:24;;;;;;;2.97;0.77;;;13.20;98.00;;;;;;5053080;28;20439;-76
2022/09/17 11:47:58;;;;;;;4.70;1.17;;;13.40;96.00;;;;;;5046913;28;20487;-76
2022/09/17 11:50:30;;;;;;;6.37;1.10;;;13.40;94.80;;;;;;5052170;28;20804;-77
2022/09/17 11:57:01;;;;;;;3.93;0.70;;;13.10;95.20;;;;;;5052717;28;20762;-76
2022/09/17 11:59:36;;;;;;;5.20;1.03;;;13.50;94.20;;;;;;5023052;28;20443;-77
2022/09/17 12:02:08;;;;;;;2.90;1.00;;;14.00;94.00;;;;;;5044392;28;20448;-77
2022/09/17 12:04:53;;;;;;;2.60;0.70;;;14.50;93.30;;;;;;5050503;28;20427;-77
2022/09/17 12:07:53;;;;;;;2.47;0.87;;;14.30;93.90;;;;;;5052619;28;20440;-76
2022/09/17 12:10:22;;;;;;;2.60;1.00;;;14.50;93.50;;;;;;5042931;28;20912;-77
2022/09/17 12:16:12;;;;;;;2.63;0.60;;;14.50;93.50;;;;;;5020050;28;20459;-63
2022/09/17 12:18:47;;;;;;;2.00;1.03;;;14.40;92.90;;;;;;5064415;23;20486;-64
2022/09/17 12:21:17;;;;;;;3.50;1.40;;;14.20;93.10;;;;;;5058737;28;20434;-64
2022/09/17 12:24:17;;;;;;;2.50;1.10;;;14.10;92.80;;;;;;5070623;28;20465;-63
2022/09/17 12:27:03;;;;;;;2.23;0.90;;;14.10;92.40;;;;;;5068523;28;20435;-63
2022/09/17 12:29:53;;;;;;;2.23;0.70;;;14.00;92.10;;;;;;5066840;28;20917;-63
2022/09/17 12:32:55;;;;;;;6.90;1.30;;;13.80;93.30;;;;;;5070311;28;20423;-63
2022/09/17 12:36:18;;;;;;;3.93;1.37;;;13.80;94.00;;;;;;5065856;28;20407;-64
2022/09/17 12:39:03;;;;;;;4.30;0.87;;;13.90;92.60;;;;;;4985160;28;20455;-63
2022/09/17 12:41:47;;;;;;;3.70;1.07;;;14.20;92.20;;;;;;5063506;28;20465;-64
2022/09/17 12:44:48;;;;;;;1.57;0.63;;;14.20;91.80;;;;;;5067968;28;20469;-63
2022/09/17 12:47:28;;;;;;;3.20;1.13;;;14.20;91.60;;;;;;5051753;28;20465;-64
2022/09/17 12:50:19;;;;;;;1.87;0.60;;;14.10;92.90;;;;;;5070244;28;20434;-63
2022/09/17 12:53:12;;;;;;;6.10;1.40;;;14.00;93.10;;;;;;5063216;28;20427;-62
2022/09/17 12:55:54;;;;;;;10.70;1.20;;;14.00;93.90;;;;;;5067581;28;20943;-62
2022/09/17 12:58:29;;;;;;;2.63;0.90;;;13.90;93.20;;;;;;5071821;28;20462;-62
2022/09/17 13:01:05;;;;;;;12.13;0.90;;;13.90;93.00;;;;;;5071559;28;20821;-62
2022/09/17 13:03:43;;;;;;;1.20;0.50;;;13.50;93.00;;;;;;5061296;28;20458;-62
2022/09/17 13:06:30;;;;;;;3.10;1.10;;;13.40;94.10;;;;;;5068608;28;20423;-62
2022/09/17 13:09:10;;;;;;;3.30;1.03;;;13.00;96.20;;;;;;5070507;28;20733;-63
2022/09/17 13:12:05;;;;;;;3.40;0.90;;;12.50;99.60;;;;;;5069003;28;20446;-63
2022/09/17 13:14:55;;;;;;;2.40;1.10;;;11.90;99.90;;;;;;5023234;28;20462;-63
2022/09/17 13:17:30;;;;;;;2.90;1.07;;;11.50;99.90;;;;;;5066816;28;21120;-62
2022/09/17 13:20:10;;;;;;;1.40;0.67;;;11.10;99.90;;;;;;5074901;28;20492;-61
2022/09/17 13:22:46;;;;;;;3.00;0.70;;;10.90;99.90;;;;;;5070394;28;20510;-62
2022/09/17 13:25:16;;;;;;;1.87;0.73;;;10.70;99.90;;;;;;5069606;28;20430;-62
2022/09/17 13:27:43;;;;;;;5.23;1.30;;;10.60;99.90;;;;;;5070006;28;20502;-62
2022/09/17 13:30:14;;;;;;;1.30;0.60;;;10.50;99.90;;;;;;5069537;28;20419;-62